createdAt,value
2018-04-11T00:00:03.198Z,6.23
2018-04-11T00:02:30.975Z,6.40
2018-04-11T00:04:59.501Z,5.27
2018-04-11T00:07:27.319Z,6.40
2018-04-11T00:09:55.839Z,5.60
2018-04-11T00:12:23.610Z,5.80
2018-04-11T00:14:51.372Z,5.73
2018-04-11T00:17:19.112Z,4.93
2018-04-11T00:19:46.907Z,10.80
2018-04-11T00:22:14.638Z,7.17
2018-04-11T00:24:42.430Z,4.27
2018-04-11T00:27:10.180Z,4.63
2018-04-11T00:29:37.958Z,4.67
2018-04-11T00:32:05.684Z,7.60
2018-04-11T00:34:33.492Z,5.07
2018-04-11T00:37:01.258Z,3.97
2018-04-11T00:39:29.067Z,5.93
2018-04-11T00:41:56.799Z,4.73
2018-04-11T00:44:24.557Z,7.53
2018-04-11T00:46:52.315Z,6.47
2018-04-11T00:49:20.072Z,6.80
2018-04-11T00:51:47.815Z,5.97
2018-04-11T00:54:15.576Z,9.83
2018-04-11T00:56:43.329Z,3.70
2018-04-11T00:59:11.076Z,6.83
2018-04-11T01:01:38.808Z,5.93
2018-04-11T01:04:07.342Z,4.97
2018-04-11T01:06:35.111Z,3.87
2018-04-11T01:09:02.901Z,4.30
2018-04-11T01:11:30.654Z,2.97
2018-04-11T01:13:58.431Z,4.57
2018-04-11T01:16:26.170Z,6.57
2018-04-11T01:18:53.909Z,5.23
2018-04-11T01:21:21.672Z,3.90
2018-04-11T01:23:49.450Z,4.03
2018-04-11T01:26:17.184Z,3.73
2018-04-11T01:28:44.943Z,4.97
2018-04-11T01:31:12.715Z,4.40
2018-04-11T01:33:40.482Z,3.47
2018-04-11T01:36:09.085Z,2.63
2018-04-11T01:38:36.862Z,4.33
2018-04-11T01:41:04.607Z,4.33
2018-04-11T01:43:32.367Z,3.97
2018-04-11T01:46:00.132Z,4.40
2018-04-11T01:48:27.899Z,5.03
2018-04-11T01:50:55.645Z,4.20
2018-04-11T01:53:23.454Z,3.67
2018-04-11T01:55:51.211Z,3.63
2018-04-11T01:58:18.947Z,6.40
2018-04-11T02:00:47.478Z,4.87
2018-04-11T02:03:16.020Z,5.13
2018-04-11T02:05:43.773Z,4.60
2018-04-11T02:08:11.527Z,5.43
2018-04-11T02:10:39.335Z,4.80
2018-04-11T02:13:07.095Z,5.23
2018-04-11T02:15:34.885Z,5.83
2018-04-11T02:18:03.452Z,3.90
2018-04-11T02:20:31.187Z,4.37
2018-04-11T02:22:58.959Z,4.57
2018-04-11T02:25:26.723Z,4.07
2018-04-11T02:27:54.495Z,3.27
2018-04-11T02:30:22.280Z,2.37
2018-04-11T02:32:50.795Z,3.20
2018-04-11T02:35:18.606Z,4.23
2018-04-11T02:37:46.349Z,3.37
2018-04-11T02:40:14.148Z,4.30
2018-04-11T02:42:42.648Z,4.87
2018-04-11T02:45:10.458Z,3.87
2018-04-11T02:47:38.227Z,5.70
2018-04-11T02:50:05.963Z,2.23
2018-04-11T02:52:33.738Z,4.70
2018-04-11T02:55:01.491Z,5.00
2018-04-11T02:57:29.247Z,5.80
2018-04-11T02:59:57.060Z,4.03
2018-04-11T03:02:25.561Z,2.63
2018-04-11T03:04:53.351Z,6.87
2018-04-11T03:07:21.087Z,3.47
2018-04-11T03:09:49.665Z,5.63
2018-04-11T03:12:18.189Z,4.03
2018-04-11T03:14:45.955Z,2.67
2018-04-11T03:17:13.716Z,3.17
2018-04-11T03:19:41.479Z,4.07
2018-04-11T03:22:09.240Z,3.47
2018-04-11T03:24:37.026Z,3.10
2018-04-11T03:27:04.783Z,6.87
2018-04-11T03:29:32.544Z,3.70
2018-04-11T03:32:00.324Z,4.63
2018-04-11T03:34:28.130Z,5.07
2018-04-11T03:36:55.914Z,5.13
2018-04-11T03:39:23.655Z,6.10
2018-04-11T03:41:51.427Z,6.27
2018-04-11T03:44:19.199Z,6.80
2018-04-11T03:46:46.947Z,5.20
2018-04-11T03:49:14.712Z,8.63
2018-04-11T03:51:42.471Z,6.07
2018-04-11T03:54:10.219Z,5.37
2018-04-11T03:56:38.756Z,7.40
2018-04-11T03:59:06.503Z,6.77
2018-04-11T04:01:34.282Z,9.13
2018-04-11T04:04:02.042Z,5.70
2018-04-11T04:06:29.809Z,5.37
2018-04-11T04:08:58.328Z,3.80
2018-04-11T04:11:26.847Z,4.77
2018-04-11T04:14:06.490Z,7.07
2018-04-11T04:16:46.003Z,8.10
2018-04-11T04:19:21.646Z,5.23
2018-04-11T04:21:49.425Z,5.37
2018-04-11T04:24:17.183Z,6.00
2018-04-11T04:26:44.947Z,5.97
2018-04-11T04:29:12.694Z,5.93
2018-04-11T04:31:41.214Z,7.30
2018-04-11T04:34:08.997Z,4.17
2018-04-11T04:36:36.740Z,5.03
2018-04-11T04:39:04.540Z,4.13
2018-04-11T04:41:32.287Z,4.93
2018-04-11T04:44:00.024Z,5.20
2018-04-11T04:46:27.759Z,4.27
2018-04-11T04:48:55.561Z,3.43
2018-04-11T04:51:23.332Z,4.23
2018-04-11T04:53:51.101Z,3.27
2018-04-11T04:56:18.856Z,3.43
2018-04-11T04:58:46.615Z,3.63
2018-04-11T05:01:14.400Z,7.37
2018-04-11T05:03:42.165Z,2.77
2018-04-11T05:06:09.918Z,4.83
2018-04-11T05:08:37.671Z,4.97
2018-04-11T05:11:05.416Z,3.97
2018-04-11T05:13:33.159Z,3.87
2018-04-11T05:16:00.960Z,4.63
2018-04-11T05:18:28.730Z,3.37
2018-04-11T05:20:56.495Z,6.47
2018-04-11T05:23:24.302Z,5.87
2018-04-11T05:25:52.073Z,3.77
2018-04-11T05:28:19.862Z,3.50
2018-04-11T05:30:47.642Z,6.77
2018-04-11T05:33:15.380Z,5.73
2018-04-11T05:35:43.179Z,6.23
2018-04-11T05:38:10.918Z,6.20
2018-04-11T05:40:38.695Z,7.93
2018-04-11T05:43:06.530Z,8.77
2018-04-11T05:45:34.291Z,3.17
2018-04-11T05:48:02.113Z,3.63
2018-04-11T05:50:29.881Z,4.20
2018-04-11T05:52:58.497Z,9.33
2018-04-11T05:55:29.710Z,3.93
2018-04-11T05:57:58.210Z,3.80
2018-04-11T06:00:25.964Z,2.70
2018-04-11T06:02:53.692Z,7.07
2018-04-11T06:05:21.465Z,5.20
2018-04-11T06:07:49.976Z,5.27
2018-04-11T06:10:17.752Z,8.90
2018-04-11T06:12:45.500Z,5.03
2018-04-11T06:15:13.232Z,9.37
2018-04-11T06:17:41.020Z,3.83
2018-04-11T06:20:09.555Z,6.90
2018-04-11T06:22:43.602Z,9.47
2018-04-11T06:25:13.523Z,9.23
2018-04-11T06:27:42.009Z,6.20
2018-04-11T06:30:10.813Z,6.67
2018-04-11T06:32:38.594Z,4.70
2018-04-11T06:35:06.278Z,4.27
2018-04-11T06:37:33.943Z,7.03
2018-04-11T06:40:01.629Z,4.63
2018-04-11T06:42:30.106Z,7.23
2018-04-11T06:44:57.780Z,4.97
2018-04-11T06:47:26.345Z,6.03
2018-04-11T06:49:54.765Z,9.30
2018-04-11T06:52:22.525Z,7.33
2018-04-11T06:54:50.286Z,9.57
2018-04-11T06:57:18.175Z,7.97
2018-04-11T06:59:45.908Z,5.17
2018-04-11T07:02:13.666Z,9.53
2018-04-11T07:04:41.361Z,5.27
2018-04-11T07:07:09.088Z,7.13
2018-04-11T07:09:36.858Z,8.73
2018-04-11T07:12:04.636Z,9.70
2018-04-11T07:14:32.394Z,6.60
2018-04-11T07:17:00.157Z,5.73
2018-04-11T07:19:27.951Z,7.10
2018-04-11T07:21:55.637Z,10.67
2018-04-11T07:24:23.421Z,6.77
2018-04-11T07:26:51.179Z,7.97
2018-04-11T07:29:19.627Z,10.80
2018-04-11T07:31:47.384Z,6.93
2018-04-11T07:34:15.070Z,8.40
2018-04-11T07:36:42.805Z,5.20
2018-04-11T07:39:10.586Z,9.50
2018-04-11T07:41:38.456Z,9.00
2018-04-11T07:44:06.186Z,7.10
2018-04-11T07:46:33.864Z,8.60
2018-04-11T07:49:01.704Z,11.20
2018-04-11T07:51:29.587Z,8.40
2018-04-11T07:53:57.296Z,6.97
2018-04-11T07:56:25.756Z,8.37
2018-04-11T07:58:53.590Z,8.13
2018-04-11T08:01:22.173Z,9.37
2018-04-11T08:03:49.953Z,8.40
2018-04-11T08:06:17.744Z,11.37
2018-04-11T08:08:46.187Z,11.83
2018-04-11T08:11:13.846Z,11.93
2018-04-11T08:13:41.521Z,11.17
2018-04-11T08:16:09.354Z,14.97
2018-04-11T08:18:37.801Z,26.27
2018-04-11T08:21:05.513Z,25.13
2018-04-11T08:23:32.670Z,25.50
2018-04-11T08:26:00.455Z,25.80
2018-04-11T08:28:29.008Z,19.83
2018-04-11T08:30:56.664Z,22.00
2018-04-11T08:33:24.396Z,18.37
2018-04-11T08:35:52.169Z,29.30
2018-04-11T08:38:19.907Z,22.03
2018-04-11T08:40:47.712Z,21.83
2018-04-11T08:43:15.501Z,20.90
2018-04-11T08:45:44.087Z,20.93
2018-04-11T08:48:12.761Z,25.57
2018-04-11T08:50:40.579Z,20.50
2018-04-11T08:53:08.330Z,22.83
2018-04-11T08:55:36.098Z,24.13
2018-04-11T08:58:03.861Z,30.03
2018-04-11T09:00:31.581Z,21.93
2018-04-11T09:02:59.403Z,18.17
2018-04-11T09:05:27.243Z,23.10
2018-04-11T09:07:55.152Z,18.17
2018-04-11T09:10:22.840Z,22.73
2018-04-11T09:12:50.584Z,15.93
2018-04-11T09:15:19.111Z,20.23
2018-04-11T09:17:46.801Z,21.30
2018-04-11T09:20:14.682Z,14.87
2018-04-11T09:22:42.541Z,14.87
2018-04-11T09:25:10.310Z,14.67
2018-04-11T09:27:38.004Z,15.03
2018-04-11T09:30:05.705Z,17.17
2018-04-11T09:32:33.496Z,13.03
2018-04-11T09:35:01.326Z,12.27
2018-04-11T09:37:29.083Z,11.57
2018-04-11T09:39:56.764Z,10.73
2018-04-11T09:42:24.576Z,14.07
2018-04-11T09:44:53.033Z,11.60
2018-04-11T09:47:21.460Z,16.63
2018-04-11T09:49:49.882Z,13.40
2018-04-11T09:52:17.609Z,15.00
2018-04-11T09:54:45.305Z,14.33
2018-04-11T09:57:12.972Z,18.33
2018-04-11T09:59:40.669Z,16.83
2018-04-11T10:02:09.523Z,16.87
2018-04-11T10:04:37.350Z,15.80
2018-04-11T10:07:05.078Z,18.27
2018-04-11T10:09:32.859Z,16.57
2018-04-11T10:12:01.306Z,16.33
2018-04-11T10:14:29.104Z,17.20
2018-04-11T10:16:56.916Z,15.53
2018-04-11T10:19:25.044Z,17.30
2018-04-11T10:21:52.878Z,18.70
2018-04-11T10:24:20.666Z,20.17
2018-04-11T10:26:49.217Z,22.17
2018-04-11T10:29:16.973Z,21.07
2018-04-11T10:31:44.716Z,23.97
2018-04-11T10:34:13.370Z,18.87
2018-04-11T10:36:41.066Z,24.03
2018-04-11T10:39:08.852Z,22.13
2018-04-11T10:41:36.537Z,23.43
2018-04-11T10:44:05.047Z,23.30
2018-04-11T10:46:32.753Z,24.23
2018-04-11T10:49:00.500Z,21.90
2018-04-11T10:51:28.192Z,25.37
2018-04-11T10:53:56.030Z,29.00
2018-04-11T10:56:23.740Z,25.87
2018-04-11T10:58:52.289Z,28.37
2018-04-11T11:01:20.072Z,31.87
2018-04-11T11:03:48.630Z,34.07
2018-04-11T11:06:16.408Z,31.77
2018-04-11T11:08:44.096Z,31.93
2018-04-11T11:11:11.778Z,30.50
2018-04-11T11:13:39.433Z,33.00
2018-04-11T11:16:07.202Z,31.63
2018-04-11T11:18:34.881Z,32.40
2018-04-11T11:21:03.391Z,38.07
2018-04-11T11:23:31.825Z,33.13
2018-04-11T11:25:59.568Z,29.20
2018-04-11T11:28:27.228Z,33.13
2018-04-11T11:30:54.905Z,35.27
2018-04-11T11:33:22.693Z,31.00
2018-04-11T11:35:50.416Z,31.60
2018-04-11T11:38:18.096Z,33.83
2018-04-11T11:40:45.876Z,26.40
2018-04-11T11:43:13.666Z,31.43
2018-04-11T11:45:42.187Z,31.30
2018-04-11T11:48:09.865Z,27.33
2018-04-11T11:50:37.589Z,25.93
2018-04-11T11:53:06.154Z,31.23
2018-04-11T11:55:34.639Z,28.47
2018-04-11T11:58:02.395Z,27.97
2018-04-11T12:00:30.922Z,24.13
2018-04-11T12:02:58.622Z,27.67
2018-04-11T12:05:27.073Z,25.43
2018-04-11T12:07:54.811Z,22.53
2018-04-11T12:10:22.495Z,27.93
2018-04-11T12:12:50.172Z,28.47
2018-04-11T12:15:17.883Z,28.07
2018-04-11T12:17:46.442Z,32.47
2018-04-11T12:20:14.111Z,27.27
2018-04-11T12:22:41.795Z,30.17
2018-04-11T12:25:10.335Z,29.53
2018-04-11T12:27:38.025Z,32.37
2018-04-11T12:30:06.666Z,33.93
2018-04-11T12:32:34.338Z,30.80
2018-04-11T12:35:02.183Z,32.97
2018-04-11T12:37:29.889Z,32.27
2018-04-11T12:39:57.580Z,31.00
2018-04-11T12:42:25.392Z,37.77
2018-04-11T12:44:53.059Z,31.97
2018-04-11T12:47:20.754Z,35.57
2018-04-11T12:49:49.182Z,35.43
2018-04-11T12:52:16.917Z,37.37
2018-04-11T12:54:44.822Z,36.47
2018-04-11T12:57:12.568Z,37.07
2018-04-11T12:59:40.246Z,35.63
2018-04-11T13:02:07.889Z,36.10
2018-04-11T13:04:36.205Z,37.27
2018-04-11T13:07:04.717Z,40.63
2018-04-11T13:09:32.374Z,39.43
2018-04-11T13:12:00.079Z,37.47
2018-04-11T13:14:27.847Z,41.07
2018-04-11T13:16:55.607Z,38.07
2018-04-11T13:19:23.289Z,36.17
2018-04-11T13:21:51.091Z,37.20
2018-04-11T13:24:18.771Z,34.33
2018-04-11T13:26:46.511Z,30.10
2018-04-11T13:29:14.258Z,38.87
2018-04-11T13:31:41.970Z,48.30
2018-04-11T13:34:09.715Z,39.57
2018-04-11T13:36:37.365Z,39.73
2018-04-11T13:39:05.109Z,34.73
2018-04-11T13:41:33.573Z,37.30
2018-04-11T13:44:02.118Z,37.00
2018-04-11T13:46:29.823Z,33.37
2018-04-11T13:48:58.280Z,33.80
2018-04-11T13:51:26.059Z,35.00
2018-04-11T13:53:54.759Z,36.70
2018-04-11T13:56:22.492Z,42.17
2018-04-11T13:58:50.293Z,40.17
2018-04-11T14:01:18.044Z,55.43
2018-04-11T14:03:46.560Z,38.50
2018-04-11T14:06:14.246Z,35.83
2018-04-11T14:08:42.108Z,34.10
2018-04-11T14:11:09.862Z,42.43
2018-04-11T14:13:37.602Z,38.07
2018-04-11T14:16:05.318Z,35.73
2018-04-11T14:18:33.009Z,35.43
2018-04-11T14:21:00.840Z,37.33
2018-04-11T14:23:29.468Z,35.83
2018-04-11T14:25:57.379Z,37.03
2018-04-11T14:28:25.299Z,32.87
2018-04-11T14:30:53.213Z,35.97
2018-04-11T14:33:21.032Z,37.93
2018-04-11T14:35:48.920Z,35.30
2018-04-11T14:38:17.606Z,33.67
2018-04-11T14:40:45.517Z,37.20
2018-04-11T14:43:14.174Z,38.27
2018-04-11T14:45:42.060Z,40.67
2018-04-11T14:48:10.702Z,36.20
2018-04-11T14:50:38.447Z,37.93
2018-04-11T14:53:06.251Z,34.07
2018-04-11T14:55:33.945Z,37.17
2018-04-11T15:00:36.253Z,35.77
2018-04-11T15:03:03.960Z,37.50
2018-04-11T15:05:31.609Z,36.13
2018-04-11T15:07:59.260Z,37.03
2018-04-11T15:10:26.997Z,36.13
2018-04-11T15:12:54.787Z,36.63
2018-04-11T15:15:22.618Z,33.20
2018-04-11T15:17:50.351Z,33.33
2018-04-11T15:20:18.137Z,34.53
2018-04-11T15:22:45.810Z,38.13
2018-04-11T15:25:13.487Z,37.20
2018-04-11T15:27:42.831Z,35.60
2018-04-11T15:30:11.291Z,36.03
2018-04-11T15:32:38.943Z,27.50
2018-04-11T15:35:06.722Z,32.13
2018-04-11T15:37:34.573Z,30.57
2018-04-11T15:40:02.334Z,23.47
2018-04-11T15:42:30.107Z,26.10
2018-04-11T15:44:58.748Z,19.67
2018-04-11T15:47:27.202Z,22.10
2018-04-11T15:49:55.728Z,19.40
2018-04-11T15:52:23.398Z,18.00
2018-04-11T15:54:51.218Z,15.27
2018-04-11T15:57:18.967Z,16.20
2018-04-11T15:59:47.418Z,12.60
2018-04-11T16:02:15.148Z,15.20
2018-04-11T16:04:42.936Z,15.87
2018-04-11T16:07:10.793Z,13.33
2018-04-11T16:09:38.572Z,16.13
2018-04-11T16:12:06.341Z,12.40
2018-04-11T16:14:34.232Z,12.43
2018-04-11T16:17:02.791Z,13.40
2018-04-11T16:19:30.536Z,12.27
2018-04-11T16:21:58.374Z,12.73
2018-04-11T16:24:26.136Z,15.80
2018-04-11T16:26:53.838Z,14.50
2018-04-11T16:29:21.498Z,15.83
2018-04-11T16:31:49.227Z,18.20
2018-04-11T16:34:17.001Z,13.77
2018-04-11T16:36:45.537Z,14.73
2018-04-11T16:39:13.989Z,16.00
2018-04-11T16:41:41.765Z,18.27
2018-04-11T16:44:10.296Z,14.20
2018-04-11T16:49:12.161Z,13.20
2018-04-11T16:51:39.899Z,13.50
2018-04-11T16:54:07.755Z,13.30
2018-04-11T16:56:37.016Z,12.80
2018-04-11T16:59:04.773Z,11.83
2018-04-11T17:01:32.557Z,9.50
2018-04-11T17:04:00.340Z,8.47
2018-04-11T17:06:28.925Z,7.13
2018-04-11T17:08:57.448Z,6.57
2018-04-11T17:11:25.198Z,7.87
2018-04-11T17:13:52.974Z,6.53
2018-04-11T17:16:20.753Z,7.23
2018-04-11T17:18:48.551Z,7.67
2018-04-11T17:21:28.959Z,5.60
2018-04-11T17:24:08.473Z,4.57
2018-04-11T17:26:48.227Z,9.20
2018-04-11T17:29:27.810Z,5.67
2018-04-11T17:31:55.623Z,5.93
2018-04-11T17:34:23.404Z,4.67
2018-04-11T17:36:51.137Z,5.63
2018-04-11T17:39:18.982Z,6.10
2018-04-11T17:41:47.557Z,6.20
2018-04-11T17:44:15.348Z,8.53
2018-04-11T17:46:43.029Z,6.00
2018-04-11T17:49:10.772Z,8.07
2018-04-11T17:51:39.191Z,5.67
2018-04-11T17:54:06.870Z,5.27
2018-04-11T17:56:34.603Z,7.47
2018-04-11T17:59:02.242Z,6.07
2018-04-11T18:01:30.677Z,11.23
2018-04-11T18:03:58.327Z,9.13
2018-04-11T18:06:25.973Z,10.30
2018-04-11T18:08:53.648Z,6.77
2018-04-11T18:11:21.410Z,7.20
2018-04-11T18:13:49.069Z,10.13
2018-04-11T18:16:16.750Z,9.07
2018-04-11T18:18:44.408Z,9.73
2018-04-11T18:21:12.077Z,5.70
2018-04-11T18:23:39.736Z,7.10
2018-04-11T18:26:07.444Z,6.93
2018-04-11T18:28:35.107Z,7.07
2018-04-11T18:31:02.760Z,8.07
2018-04-11T18:33:30.469Z,8.93
2018-04-11T18:35:58.117Z,7.37
2018-04-11T18:38:25.774Z,11.93
2018-04-11T18:40:54.208Z,7.43
2018-04-11T18:43:22.633Z,7.70
2018-04-11T18:45:50.295Z,5.43
2018-04-11T18:48:17.969Z,6.63
2018-04-11T18:50:45.626Z,7.63
2018-04-11T18:53:13.262Z,8.37
2018-04-11T18:55:40.933Z,7.77
2018-04-11T18:58:08.723Z,7.10
2018-04-11T19:00:37.294Z,9.83
2018-04-11T19:03:05.071Z,7.33
2018-04-11T19:05:33.622Z,9.37
2018-04-11T19:08:02.208Z,9.87
2018-04-11T19:10:29.974Z,7.63
2018-04-11T19:12:57.795Z,8.57
2018-04-11T19:15:25.555Z,7.83
2018-04-11T19:17:53.345Z,9.17
2018-04-11T19:20:21.137Z,7.40
2018-04-11T19:22:48.888Z,9.87
2018-04-11T19:25:17.051Z,7.10
2018-04-11T19:27:45.257Z,9.97
2018-04-11T19:30:13.721Z,9.13
2018-04-11T19:32:42.526Z,11.77
2018-04-11T19:35:10.978Z,9.93
2018-04-11T19:37:40.861Z,9.13
2018-04-11T19:40:10.016Z,6.77
2018-04-11T19:42:39.988Z,6.03
2018-04-11T19:45:09.019Z,5.47
2018-04-11T19:47:38.290Z,6.07
2018-04-11T19:50:07.583Z,8.33
2018-04-11T19:52:36.275Z,4.03
2018-04-11T19:55:04.152Z,7.77
2018-04-11T19:57:31.934Z,8.93
2018-04-11T20:00:02.009Z,6.33
2018-04-11T20:02:31.233Z,5.37
2018-04-11T20:05:00.401Z,5.27
2018-04-11T20:07:28.284Z,6.67
2018-04-11T20:09:57.293Z,6.97
2018-04-11T20:12:27.763Z,5.73
2018-04-11T20:14:56.490Z,9.07
2018-04-11T20:17:24.924Z,6.87
2018-04-11T20:19:52.703Z,8.40
2018-04-11T20:22:20.588Z,6.20
2018-04-11T20:24:48.572Z,8.47
2018-04-11T20:27:16.280Z,9.30
2018-04-11T20:29:43.952Z,8.83
2018-04-11T20:32:11.624Z,8.17
2018-04-11T20:34:39.288Z,9.37
2018-04-11T20:37:07.089Z,7.90
2018-04-11T20:39:34.831Z,6.83
2018-04-11T20:42:02.546Z,7.40
2018-04-11T20:44:31.664Z,6.63
2018-04-11T20:46:59.327Z,8.20
2018-04-11T20:49:27.068Z,7.57
2018-04-11T20:51:54.772Z,5.27
2018-04-11T20:54:22.516Z,5.40
2018-04-11T20:56:50.210Z,9.43
2018-04-11T20:59:17.905Z,7.17
2018-04-11T21:01:46.340Z,8.23
2018-04-11T21:04:14.202Z,7.93
2018-04-11T21:06:41.973Z,11.90
2018-04-11T21:09:09.705Z,13.77
2018-04-11T21:11:37.536Z,10.63
2018-04-11T21:14:05.999Z,9.60
2018-04-11T21:16:33.745Z,7.50
2018-04-11T21:19:01.434Z,7.40
2018-04-11T21:21:29.182Z,8.47
2018-04-11T21:23:56.934Z,8.57
2018-04-11T21:26:24.698Z,9.17
2018-04-11T21:28:52.513Z,9.93
2018-04-11T21:31:20.196Z,12.97
2018-04-11T21:33:47.869Z,6.40
2018-04-11T21:36:15.632Z,6.67
2018-04-11T21:38:43.443Z,8.43
2018-04-11T21:41:11.865Z,9.83
2018-04-11T21:43:39.601Z,6.93
2018-04-11T21:46:07.431Z,12.77
2018-04-11T21:48:36.941Z,10.17
2018-04-11T21:51:04.747Z,7.10
2018-04-11T21:53:33.348Z,5.97
2018-04-11T21:56:01.226Z,5.47
2018-04-11T21:58:28.923Z,8.53
2018-04-11T22:00:57.443Z,6.53
2018-04-11T22:03:25.140Z,7.27
2018-04-11T22:05:52.886Z,12.03
2018-04-11T22:08:21.307Z,6.63
2018-04-11T22:10:49.833Z,8.17
2018-04-11T22:13:17.524Z,7.10
2018-04-11T22:15:45.205Z,9.80
2018-04-11T22:18:12.948Z,8.23
2018-04-11T22:20:40.767Z,8.47
2018-04-11T22:23:08.646Z,7.27
2018-04-11T22:25:36.325Z,9.40
2018-04-11T22:28:04.118Z,10.00
2018-04-11T22:30:32.590Z,8.07
2018-04-11T22:33:00.344Z,8.57
2018-04-11T22:35:28.063Z,10.93
2018-04-11T22:37:55.852Z,8.40
2018-04-11T22:40:23.634Z,8.63
2018-04-11T22:42:51.316Z,7.83
2018-04-11T22:45:18.993Z,6.90
2018-04-11T22:47:47.540Z,11.80
2018-04-11T22:50:15.417Z,9.83
2018-04-11T22:52:44.014Z,7.77
2018-04-11T22:55:11.775Z,7.77
2018-04-11T22:57:40.224Z,12.07
2018-04-11T23:00:08.031Z,9.87
2018-04-11T23:02:36.435Z,7.33
2018-04-11T23:05:04.312Z,10.50
2018-04-11T23:07:32.062Z,8.77
2018-04-11T23:09:59.928Z,8.27
2018-04-11T23:12:27.711Z,14.57
2018-04-11T23:14:55.587Z,12.57
2018-04-11T23:17:24.212Z,11.67
2018-04-11T23:19:52.004Z,13.80
2018-04-11T23:22:19.751Z,11.10
2018-04-11T23:24:47.581Z,10.50
2018-04-11T23:27:16.127Z,11.63
2018-04-11T23:29:43.924Z,10.17
2018-04-11T23:32:12.492Z,12.43
2018-04-11T23:34:40.231Z,10.23
2018-04-11T23:37:07.980Z,12.67
2018-04-11T23:39:35.724Z,12.27
2018-04-11T23:42:03.521Z,13.03
2018-04-11T23:44:31.200Z,13.77
2018-04-11T23:46:58.932Z,12.07
2018-04-11T23:49:26.701Z,13.53
2018-04-11T23:51:54.554Z,11.90
2018-04-11T23:54:22.220Z,14.60
2018-04-11T23:56:49.912Z,13.20
2018-04-11T23:59:17.677Z,13.07
